sensor_id;sensor_type;location;lat;lon;timestamp;pressure;altitude;pressure_sealevel;temperature;humidity
24962;BME280;12992;50.884;13.668;2023-06-10T00:02:15;97137.34;;;14.59;100.00
24962;BME280;12992;50.884;13.668;2023-06-10T00:04:42;97140.41;;;14.53;100.00
24962;BME280;12992;50.884;13.668;2023-06-10T00:07:08;97143.94;;;14.58;100.00
24962;BME280;12992;50.884;13.668;2023-06-10T00:09:37;97136.56;;;14.54;100.00
24962;BME280;12992;50.884;13.668;2023-06-10T00:12:06;97148.03;;;14.61;100.00
24962;BME280;12992;50.884;13.668;2023-06-10T00:14:37;97148.03;;;14.61;100.00
24962;BME280;12992;50.884;13.668;2023-06-10T00:17:02;97145.06;;;14.52;100.00
24962;BME280;12992;50.884;13.668;2023-06-10T00:19:28;97140.41;;;14.53;100.00
24962;BME280;12992;50.884;13.668;2023-06-10T00:21:56;97155.75;;;14.54;100.00
24962;BME280;12992;50.884;13.668;2023-06-10T00:24:21;97156.53;;;14.59;100.00
24962;BME280;12992;50.884;13.668;2023-06-10T00:26:47;97151.06;;;14.59;100.00
24962;BME280;12992;50.884;13.668;2023-06-10T00:29:12;97148.88;;;14.56;100.00
24962;BME280;12992;50.884;13.668;2023-06-10T00:31:38;97151.38;;;14.53;100.00
24962;BME280;12992;50.884;13.668;2023-06-10T00:34:06;97157.44;;;14.50;100.00
24962;BME280;12992;50.884;13.668;2023-06-10T00:36:32;97153.06;;;14.43;100.00
24962;BME280;12992;50.884;13.668;2023-06-10T00:38:57;97156.59;;;14.44;100.00
24962;BME280;12992;50.884;13.668;2023-06-10T00:41:23;97155.25;;;14.41;100.00
24962;BME280;12992;50.884;13.668;2023-06-10T00:43:49;97150.63;;;14.37;100.00
24962;BME280;12992;50.884;13.668;2023-06-10T00:46:15;97161.06;;;14.35;100.00
24962;BME280;12992;50.884;13.668;2023-06-10T00:48:42;97161.88;;;14.35;100.00
24962;BME280;12992;50.884;13.668;2023-06-10T00:51:08;97166.25;;;14.36;100.00
24962;BME280;12992;50.884;13.668;2023-06-10T00:53:39;97176.09;;;14.37;100.00
24962;BME280;12992;50.884;13.668;2023-06-10T00:56:04;97175.84;;;14.34;100.00
24962;BME280;12992;50.884;13.668;2023-06-10T00:58:30;97175.63;;;14.25;100.00
24962;BME280;12992;50.884;13.668;2023-06-10T01:00:56;97169.34;;;14.20;100.00
24962;BME280;12992;50.884;13.668;2023-06-10T01:03:25;97183.28;;;14.28;100.00
24962;BME280;12992;50.884;13.668;2023-06-10T01:05:56;97180.59;;;14.23;100.00
24962;BME280;12992;50.884;13.668;2023-06-10T01:08:38;97194.22;;;14.28;100.00
24962;BME280;12992;50.884;13.668;2023-06-10T01:11:08;97192.66;;;14.17;100.00
24962;BME280;12992;50.884;13.668;2023-06-10T01:13:40;97192.41;;;14.13;100.00
24962;BME280;12992;50.884;13.668;2023-06-10T01:16:06;97201.69;;;14.17;100.00
24962;BME280;12992;50.884;13.668;2023-06-10T01:18:32;97196.59;;;13.91;100.00
24962;BME280;12992;50.884;13.668;2023-06-10T01:20:58;97201.81;;;13.92;100.00
24962;BME280;12992;50.884;13.668;2023-06-10T01:23:24;97206.97;;;13.99;100.00
24962;BME280;12992;50.884;13.668;2023-06-10T01:25:54;97204.34;;;13.78;100.00
24962;BME280;12992;50.884;13.668;2023-06-10T01:28:53;97204.06;;;13.75;100.00
24962;BME280;12992;50.884;13.668;2023-06-10T01:31:33;97225.09;;;13.89;100.00
24962;BME280;12992;50.884;13.668;2023-06-10T01:34:05;97202.72;;;13.67;100.00
24962;BME280;12992;50.884;13.668;2023-06-10T01:36:34;97226.19;;;13.83;100.00
24962;BME280;12992;50.884;13.668;2023-06-10T01:39:02;97214.75;;;13.71;100.00
24962;BME280;12992;50.884;13.668;2023-06-10T01:41:29;97218.59;;;13.65;100.00
24962;BME280;12992;50.884;13.668;2023-06-10T01:43:55;97216.41;;;13.57;100.00
24962;BME280;12992;50.884;13.668;2023-06-10T01:46:20;97219.44;;;13.55;100.00
24962;BME280;12992;50.884;13.668;2023-06-10T01:48:46;97239.91;;;13.68;100.00
24962;BME280;12992;50.884;13.668;2023-06-10T01:51:12;97257.16;;;13.79;100.00
24962;BME280;12992;50.884;13.668;2023-06-10T01:53:37;97255.25;;;13.79;100.00
24962;BME280;12992;50.884;13.668;2023-06-10T01:56:02;97247.28;;;13.83;100.00
24962;BME280;12992;50.884;13.668;2023-06-10T01:58:28;97239.38;;;13.71;100.00
24962;BME280;12992;50.884;13.668;2023-06-10T02:00:54;97254.66;;;13.82;100.00
24962;BME280;12992;50.884;13.668;2023-06-10T02:03:19;97263.94;;;13.92;100.00
24962;BME280;12992;50.884;13.668;2023-06-10T02:05:45;97271.59;;;13.95;100.00
24962;BME280;12992;50.884;13.668;2023-06-10T02:08:10;97256.59;;;13.82;100.00
24962;BME280;12992;50.884;13.668;2023-06-10T02:10:36;97269.19;;;13.83;100.00
24962;BME280;12992;50.884;13.668;2023-06-10T02:13:01;97268.06;;;13.84;100.00
24962;BME280;12992;50.884;13.668;2023-06-10T02:15:27;97267.53;;;13.82;100.00
24962;BME280;12992;50.884;13.668;2023-06-10T02:17:52;97274.38;;;13.89;100.00
24962;BME280;12992;50.884;13.668;2023-06-10T02:20:18;97261.25;;;13.81;100.00
24962;BME280;12992;50.884;13.668;2023-06-10T02:22:43;97256.63;;;13.67;100.00
24962;BME280;12992;50.884;13.668;2023-06-10T02:25:09;97270.84;;;13.74;100.00
24962;BME280;12992;50.884;13.668;2023-06-10T02:27:34;97267.56;;;13.72;100.00
24962;BME280;12992;50.884;13.668;2023-06-10T02:29:59;97269.19;;;13.68;100.00
24962;BME280;12992;50.884;13.668;2023-06-10T02:32:25;97273.03;;;13.67;100.00
24962;BME280;12992;50.884;13.668;2023-06-10T02:34:51;97271.69;;;13.59;100.00
24962;BME280;12992;50.884;13.668;2023-06-10T02:37:17;97271.69;;;13.59;100.00
24962;BME280;12992;50.884;13.668;2023-06-10T02:39:43;97286.19;;;13.65;100.00
24962;BME280;12992;50.884;13.668;2023-06-10T02:42:10;97275.78;;;13.51;100.00
24962;BME280;12992;50.884;13.668;2023-06-10T02:44:36;97268.41;;;13.42;100.00
24962;BME280;12992;50.884;13.668;2023-06-10T02:47:02;97281.53;;;13.50;100.00
24962;BME280;12992;50.884;13.668;2023-06-10T02:49:27;97282.91;;;13.47;100.00
24962;BME280;12992;50.884;13.668;2023-06-10T02:51:53;97296.34;;;13.54;100.00
24962;BME280;12992;50.884;13.668;2023-06-10T02:54:20;97286.47;;;13.48;100.00
24962;BME280;12992;50.884;13.668;2023-06-10T02:56:45;97295.50;;;13.48;100.00
24962;BME280;12992;50.884;13.668;2023-06-10T02:59:18;97283.19;;;13.41;100.00
24962;BME280;12992;50.884;13.668;2023-06-10T03:01:45;97285.66;;;13.42;100.00
24962;BME280;12992;50.884;13.668;2023-06-10T03:04:11;97289.19;;;13.43;100.00
24962;BME280;12992;50.884;13.668;2023-06-10T03:06:39;97285.94;;;13.41;100.00
24962;BME280;12992;50.884;13.668;2023-06-10T03:09:15;97279.66;;;13.35;100.00
24962;BME280;12992;50.884;13.668;2023-06-10T03:11:43;97290.31;;;13.42;100.00
24962;BME280;12992;50.884;13.668;2023-06-10T03:14:09;97282.94;;;13.37;100.00
24962;BME280;12992;50.884;13.668;2023-06-10T03:16:34;97282.94;;;13.37;100.00
24962;BME280;12992;50.884;13.668;2023-06-10T03:19:00;97288.66;;;13.41;100.00
24962;BME280;12992;50.884;13.668;2023-06-10T03:21:25;97278.56;;;13.31;100.00
24962;BME280;12992;50.884;13.668;2023-06-10T03:23:53;97282.09;;;13.31;100.00
24962;BME280;12992;50.884;13.668;2023-06-10T03:26:18;97281.00;;;13.32;100.00
24962;BME280;12992;50.884;13.668;2023-06-10T03:28:46;97281.00;;;13.32;100.00
24962;BME280;12992;50.884;13.668;2023-06-10T03:31:12;97273.38;;;13.29;100.00
24962;BME280;12992;50.884;13.668;2023-06-10T03:33:37;97276.09;;;13.29;100.00
24962;BME280;12992;50.884;13.668;2023-06-10T03:36:04;97287.84;;;13.30;100.00
24962;BME280;12992;50.884;13.668;2023-06-10T03:38:30;97291.41;;;13.30;100.00
24962;BME280;12992;50.884;13.668;2023-06-10T03:40:55;97298.53;;;13.37;100.00
24962;BME280;12992;50.884;13.668;2023-06-10T03:43:21;97295.25;;;13.35;100.00
24962;BME280;12992;50.884;13.668;2023-06-10T03:45:47;97301.00;;;13.43;100.00
24962;BME280;12992;50.884;13.668;2023-06-10T03:48:14;97302.63;;;13.44;100.00
24962;BME280;12992;50.884;13.668;2023-06-10T03:50:45;97307.25;;;13.49;100.00
24962;BME280;12992;50.884;13.668;2023-06-10T03:53:12;97311.91;;;13.48;100.00
24962;BME280;12992;50.884;13.668;2023-06-10T03:55:40;97314.94;;;13.47;100.00
24962;BME280;12992;50.884;13.668;2023-06-10T03:58:06;97323.41;;;13.55;100.00
24962;BME280;12992;50.884;13.668;2023-06-10T04:00:32;97310.84;;;13.44;100.00
24962;BME280;12992;50.884;13.668;2023-06-10T04:03:06;97324.22;;;13.56;100.00
24962;BME280;12992;50.884;13.668;2023-06-10T04:05:36;97333.50;;;13.60;100.00
24962;BME280;12992;50.884;13.668;2023-06-10T04:08:02;97332.72;;;13.65;100.00
24962;BME280;12992;50.884;13.668;2023-06-10T04:10:27;97339.53;;;13.77;100.00
24962;BME280;12992;50.884;13.668;2023-06-10T04:12:54;97346.34;;;13.85;100.00
24962;BME280;12992;50.884;13.668;2023-06-10T04:15:22;97336.53;;;13.79;100.00
24962;BME280;12992;50.884;13.668;2023-06-10T04:17:47;97338.16;;;13.85;100.00
24962;BME280;12992;50.884;13.668;2023-06-10T04:20:16;97345.53;;;14.00;100.00
24962;BME280;12992;50.884;13.668;2023-06-10T04:22:44;97346.88;;;14.07;100.00
24962;BME280;12992;50.884;13.668;2023-06-10T04:25:10;97351.50;;;14.17;100.00
24962;BME280;12992;50.884;13.668;2023-06-10T04:27:35;97350.41;;;14.23;100.00
24962;BME280;12992;50.884;13.668;2023-06-10T04:30:02;97356.66;;;14.29;100.00
24962;BME280;12992;50.884;13.668;2023-06-10T04:32:29;97360.19;;;14.39;100.00
24962;BME280;12992;50.884;13.668;2023-06-10T04:34:55;97360.16;;;14.55;100.00
24962;BME280;12992;50.884;13.668;2023-06-10T04:37:21;97359.88;;;14.61;100.00
24962;BME280;12992;50.884;13.668;2023-06-10T04:39:46;97356.28;;;14.66;100.00
24962;BME280;12992;50.884;13.668;2023-06-10T04:42:13;97355.44;;;14.70;100.00
24962;BME280;12992;50.884;13.668;2023-06-10T04:44:39;97347.75;;;14.72;100.00
24962;BME280;12992;50.884;13.668;2023-06-10T04:47:06;97358.94;;;14.81;100.00
24962;BME280;12992;50.884;13.668;2023-06-10T04:49:33;97347.41;;;14.89;100.00
24962;BME280;12992;50.884;13.668;2023-06-10T04:51:59;97358.81;;;15.07;100.00
24962;BME280;12992;50.884;13.668;2023-06-10T04:54:25;97351.03;;;15.24;100.00
24962;BME280;12992;50.884;13.668;2023-06-10T04:56:51;97357.53;;;15.38;100.00
24962;BME280;12992;50.884;13.668;2023-06-10T04:59:16;97356.84;;;15.51;100.00
24962;BME280;12992;50.884;13.668;2023-06-10T05:01:41;97361.44;;;15.66;100.00
24962;BME280;12992;50.884;13.668;2023-06-10T05:04:07;97357.34;;;15.64;100.00
24962;BME280;12992;50.884;13.668;2023-06-10T05:06:32;97344.69;;;15.68;100.00
24962;BME280;12992;50.884;13.668;2023-06-10T05:08:57;97357.66;;;15.91;100.00
24962;BME280;12992;50.884;13.668;2023-06-10T05:11:22;97351.09;;;15.87;100.00
24962;BME280;12992;50.884;13.668;2023-06-10T05:13:48;97353.69;;;16.02;100.00
24962;BME280;12992;50.884;13.668;2023-06-10T05:16:14;97351.47;;;16.04;100.00
24962;BME280;12992;50.884;13.668;2023-06-10T05:18:40;97361.97;;;16.26;100.00
24962;BME280;12992;50.884;13.668;2023-06-10T05:21:05;97369.28;;;16.36;100.00
24962;BME280;12992;50.884;13.668;2023-06-10T05:23:31;97372.66;;;16.52;100.00
24962;BME280;12992;50.884;13.668;2023-06-10T05:25:56;97360.03;;;16.51;100.00
24962;BME280;12992;50.884;13.668;2023-06-10T05:28:22;97358.09;;;16.51;100.00
24962;BME280;12992;50.884;13.668;2023-06-10T05:30:47;97362.59;;;16.66;100.00
24962;BME280;12992;50.884;13.668;2023-06-10T05:33:12;97374.78;;;16.84;100.00
24962;BME280;12992;50.884;13.668;2023-06-10T05:35:37;97378.81;;;16.91;100.00
24962;BME280;12992;50.884;13.668;2023-06-10T05:38:03;97376.00;;;16.96;100.00
24962;BME280;12992;50.884;13.668;2023-06-10T05:40:28;97390.34;;;17.12;100.00
24962;BME280;12992;50.884;13.668;2023-06-10T05:42:53;97365.00;;;16.96;100.00
24962;BME280;12992;50.884;13.668;2023-06-10T05:45:19;97371.84;;;17.18;100.00
24962;BME280;12992;50.884;13.668;2023-06-10T05:47:44;97373.84;;;17.31;100.00
24962;BME280;12992;50.884;13.668;2023-06-10T05:50:10;97380.59;;;17.39;100.00
24962;BME280;12992;50.884;13.668;2023-06-10T05:52:35;97397.34;;;17.61;100.00
24962;BME280;12992;50.884;13.668;2023-06-10T05:55:02;97382.69;;;17.47;100.00
24962;BME280;12992;50.884;13.668;2023-06-10T05:57:28;97384.41;;;17.80;100.00
24962;BME280;12992;50.884;13.668;2023-06-10T05:59:53;97374.84;;;17.92;100.00
24962;BME280;12992;50.884;13.668;2023-06-10T06:02:18;97349.16;;;18.10;100.00
24962;BME280;12992;50.884;13.668;2023-06-10T06:04:43;97338.59;;;18.31;100.00
24962;BME280;12992;50.884;13.668;2023-06-10T06:07:09;97329.16;;;18.46;100.00
24962;BME280;12992;50.884;13.668;2023-06-10T06:09:35;97336.47;;;18.69;100.00
24962;BME280;12992;50.884;13.668;2023-06-10T06:12:00;97321.94;;;18.91;100.00
24962;BME280;12992;50.884;13.668;2023-06-10T06:14:25;97315.56;;;19.04;100.00
24962;BME280;12992;50.884;13.668;2023-06-10T06:16:51;97317.66;;;19.21;100.00
24962;BME280;12992;50.884;13.668;2023-06-10T06:19:16;97315.34;;;19.37;100.00
24962;BME280;12992;50.884;13.668;2023-06-10T06:21:41;97311.03;;;19.44;100.00
24962;BME280;12992;50.884;13.668;2023-06-10T06:24:07;97315.81;;;19.52;100.00
24962;BME280;12992;50.884;13.668;2023-06-10T06:26:32;97313.25;;;19.56;100.00
24962;BME280;12992;50.884;13.668;2023-06-10T06:28:57;97309.84;;;19.59;100.00
24962;BME280;12992;50.884;13.668;2023-06-10T06:31:22;97309.31;;;19.71;100.00
24962;BME280;12992;50.884;13.668;2023-06-10T06:33:48;97314.56;;;19.81;100.00
24962;BME280;12992;50.884;13.668;2023-06-10T06:36:13;97310.72;;;19.91;100.00
24962;BME280;12992;50.884;13.668;2023-06-10T06:38:38;97295.22;;;19.81;100.00
24962;BME280;12992;50.884;13.668;2023-06-10T06:41:04;97314.63;;;19.90;100.00
24962;BME280;12992;50.884;13.668;2023-06-10T06:43:31;97319.59;;;20.10;100.00
24962;BME280;12992;50.884;13.668;2023-06-10T06:46:12;97324.09;;;20.37;100.00
24962;BME280;12992;50.884;13.668;2023-06-10T06:48:37;97324.91;;;20.37;100.00
24962;BME280;12992;50.884;13.668;2023-06-10T06:51:02;97330.88;;;20.53;100.00
24962;BME280;12992;50.884;13.668;2023-06-10T06:53:28;97345.25;;;20.73;100.00
24962;BME280;12992;50.884;13.668;2023-06-10T06:55:53;97344.78;;;20.71;100.00
24962;BME280;12992;50.884;13.668;2023-06-10T06:58:18;97327.88;;;20.81;100.00
24962;BME280;12992;50.884;13.668;2023-06-10T07:00:44;97321.34;;;20.77;100.00
24962;BME280;12992;50.884;13.668;2023-06-10T07:03:09;97320.78;;;20.57;100.00
24962;BME280;12992;50.884;13.668;2023-06-10T07:05:34;97340.50;;;20.64;100.00
24962;BME280;12992;50.884;13.668;2023-06-10T07:08:00;97352.75;;;20.72;100.00
24962;BME280;12992;50.884;13.668;2023-06-10T07:10:25;97349.81;;;20.69;100.00
24962;BME280;12992;50.884;13.668;2023-06-10T07:12:52;97328.50;;;20.38;100.00
24962;BME280;12992;50.884;13.668;2023-06-10T07:15:18;97342.28;;;20.52;100.00
24962;BME280;12992;50.884;13.668;2023-06-10T07:17:43;97348.78;;;20.56;100.00
24962;BME280;12992;50.884;13.668;2023-06-10T07:20:10;97348.63;;;20.52;100.00
24962;BME280;12992;50.884;13.668;2023-06-10T07:22:36;97353.72;;;20.68;100.00
24962;BME280;12992;50.884;13.668;2023-06-10T07:25:01;97349.66;;;20.74;100.00
24962;BME280;12992;50.884;13.668;2023-06-10T07:27:27;97361.25;;;20.84;100.00
24962;BME280;12992;50.884;13.668;2023-06-10T07:29:52;97346.31;;;20.46;100.00
24962;BME280;12992;50.884;13.668;2023-06-10T07:32:19;97358.56;;;20.53;100.00
24962;BME280;12992;50.884;13.668;2023-06-10T07:34:45;97329.97;;;20.04;100.00
24962;BME280;12992;50.884;13.668;2023-06-10T07:37:11;97361.28;;;20.22;100.00
24962;BME280;12992;50.884;13.668;2023-06-10T07:39:36;97364.94;;;20.40;100.00
24962;BME280;12992;50.884;13.668;2023-06-10T07:42:01;97351.28;;;20.35;100.00
24962;BME280;12992;50.884;13.668;2023-06-10T07:44:27;97339.31;;;20.17;100.00
24962;BME280;12992;50.884;13.668;2023-06-10T07:46:53;97352.78;;;20.10;100.00
24962;BME280;12992;50.884;13.668;2023-06-10T07:49:18;97351.78;;;20.06;100.00
24962;BME280;12992;50.884;13.668;2023-06-10T07:51:43;97371.19;;;20.15;100.00
24962;BME280;12992;50.884;13.668;2023-06-10T07:54:09;97387.63;;;20.20;100.00
24962;BME280;12992;50.884;13.668;2023-06-10T07:56:34;97363.09;;;19.96;100.00
24962;BME280;12992;50.884;13.668;2023-06-10T07:58:59;97373.75;;;20.11;100.00
24962;BME280;12992;50.884;13.668;2023-06-10T08:01:25;97389.59;;;20.19;100.00
24962;BME280;12992;50.884;13.668;2023-06-10T08:03:50;97373.59;;;20.07;100.00
24962;BME280;12992;50.884;13.668;2023-06-10T08:06:16;97351.47;;;19.85;100.00
24962;BME280;12992;50.884;13.668;2023-06-10T08:08:42;97370.66;;;19.82;100.00
24962;BME280;12992;50.884;13.668;2023-06-10T08:11:10;97385.44;;;19.86;100.00
24962;BME280;12992;50.884;13.668;2023-06-10T08:13:36;97379.25;;;19.80;100.00
24962;BME280;12992;50.884;13.668;2023-06-10T08:16:01;97379.38;;;19.75;100.00
24962;BME280;12992;50.884;13.668;2023-06-10T08:18:26;97391.06;;;19.72;100.00
24962;BME280;12992;50.884;13.668;2023-06-10T08:20:52;97387.31;;;19.54;100.00
24962;BME280;12992;50.884;13.668;2023-06-10T08:23:17;97393.19;;;19.25;100.00
24962;BME280;12992;50.884;13.668;2023-06-10T08:25:44;97395.50;;;18.95;100.00
24962;BME280;12992;50.884;13.668;2023-06-10T08:28:10;97402.84;;;18.73;100.00
24962;BME280;12992;50.884;13.668;2023-06-10T08:30:35;97403.34;;;18.61;100.00
24962;BME280;12992;50.884;13.668;2023-06-10T08:33:00;97409.94;;;18.32;100.00
24962;BME280;12992;50.884;13.668;2023-06-10T08:35:26;97410.13;;;18.22;100.00
24962;BME280;12992;50.884;13.668;2023-06-10T08:37:51;97405.50;;;18.04;100.00
24962;BME280;12992;50.884;13.668;2023-06-10T08:40:16;97409.13;;;17.86;100.00
24962;BME280;12992;50.884;13.668;2023-06-10T08:42:53;97415.06;;;17.74;100.00
24962;BME280;12992;50.884;13.668;2023-06-10T08:45:23;97431.22;;;17.80;100.00
24962;BME280;12992;50.884;13.668;2023-06-10T08:47:50;97435.03;;;17.85;100.00
24962;BME280;12992;50.884;13.668;2023-06-10T08:50:18;97439.03;;;17.92;100.00
24962;BME280;12992;50.884;13.668;2023-06-10T08:52:44;97455.56;;;18.11;100.00
24962;BME280;12992;50.884;13.668;2023-06-10T08:55:27;97463.31;;;18.55;100.00
24962;BME280;12992;50.884;13.668;2023-06-10T08:57:54;97481.75;;;19.42;100.00
24962;BME280;12992;50.884;13.668;2023-06-10T09:00:20;97490.34;;;20.27;100.00
24962;BME280;12992;50.884;13.668;2023-06-10T09:02:46;97503.16;;;22.13;100.00
24962;BME280;12992;50.884;13.668;2023-06-10T09:05:12;97484.03;;;23.10;100.00
24962;BME280;12992;50.884;13.668;2023-06-10T09:07:38;97491.22;;;24.74;100.00
24962;BME280;12992;50.884;13.668;2023-06-10T09:10:04;97452.50;;;25.06;100.00
24962;BME280;12992;50.884;13.668;2023-06-10T09:12:34;97385.94;;;24.68;100.00
24962;BME280;12992;50.884;13.668;2023-06-10T09:15:00;97378.78;;;24.00;100.00
24962;BME280;12992;50.884;13.668;2023-06-10T09:17:26;97374.31;;;23.45;100.00
24962;BME280;12992;50.884;13.668;2023-06-10T09:19:52;97377.34;;;23.02;100.00
24962;BME280;12992;50.884;13.668;2023-06-10T09:22:18;97370.38;;;22.49;100.00
24962;BME280;12992;50.884;13.668;2023-06-10T09:24:46;97379.13;;;22.13;100.00
24962;BME280;12992;50.884;13.668;2023-06-10T09:27:11;97385.50;;;21.96;100.00
24962;BME280;12992;50.884;13.668;2023-06-10T09:29:55;97414.22;;;21.83;100.00
24962;BME280;12992;50.884;13.668;2023-06-10T09:32:23;97396.78;;;21.48;100.00
24962;BME280;12992;50.884;13.668;2023-06-10T09:34:48;97419.59;;;21.80;100.00
24962;BME280;12992;50.884;13.668;2023-06-10T09:37:23;97409.50;;;21.92;100.00
24962;BME280;12992;50.884;13.668;2023-06-10T09:40:02;97436.84;;;22.54;100.00
24962;BME280;12992;50.884;13.668;2023-06-10T09:42:32;97475.59;;;24.07;100.00
24962;BME280;12992;50.884;13.668;2023-06-10T09:44:58;97484.06;;;24.98;100.00
24962;BME280;12992;50.884;13.668;2023-06-10T09:47:23;97501.81;;;26.27;100.00
24962;BME280;12992;50.884;13.668;2023-06-10T09:49:51;97507.88;;;28.50;100.00
24962;BME280;12992;50.884;13.668;2023-06-10T09:52:23;97468.34;;;29.67;91.26
24962;BME280;12992;50.884;13.668;2023-06-10T09:55:02;97488.53;;;30.62;98.03
24962;BME280;12992;50.884;13.668;2023-06-10T09:57:31;97435.31;;;31.69;71.32
24962;BME280;12992;50.884;13.668;2023-06-10T10:00:07;97470.78;;;32.46;88.99
24962;BME280;12992;50.884;13.668;2023-06-10T10:02:52;97446.31;;;32.75;81.05
24962;BME280;12992;50.884;13.668;2023-06-10T10:05:20;97370.91;;;32.51;61.34
24962;BME280;12992;50.884;13.668;2023-06-10T10:07:45;97404.00;;;32.72;67.68
24962;BME280;12992;50.884;13.668;2023-06-10T10:10:12;97460.94;;;33.27;89.95
24962;BME280;12992;50.884;13.668;2023-06-10T10:12:38;97397.59;;;33.78;61.48
24962;BME280;12992;50.884;13.668;2023-06-10T10:15:06;97400.06;;;33.15;70.47
24962;BME280;12992;50.884;13.668;2023-06-10T10:17:34;97387.53;;;33.20;65.39
24962;BME280;12992;50.884;13.668;2023-06-10T10:20:03;97351.63;;;32.67;56.25
24962;BME280;12992;50.884;13.668;2023-06-10T10:22:39;97366.97;;;31.75;69.03
24962;BME280;12992;50.884;13.668;2023-06-10T10:25:16;97322.72;;;31.10;62.85
24962;BME280;12992;50.884;13.668;2023-06-10T10:27:51;97306.56;;;30.15;64.56
24962;BME280;12992;50.884;13.668;2023-06-10T10:30:17;97292.50;;;28.95;67.42
24962;BME280;12992;50.884;13.668;2023-06-10T10:35:23;97364.59;;;30.37;68.80
24962;BME280;12992;50.884;13.668;2023-06-10T10:37:53;97317.81;;;29.51;72.08
24962;BME280;12992;50.884;13.668;2023-06-10T10:40:21;97273.47;;;28.85;64.18
24962;BME280;12992;50.884;13.668;2023-06-10T10:42:48;97268.31;;;28.37;68.96
24962;BME280;12992;50.884;13.668;2023-06-10T10:45:14;97253.03;;;27.70;68.92
24962;BME280;12992;50.884;13.668;2023-06-10T10:47:41;97270.25;;;27.72;72.28
24962;BME280;12992;50.884;13.668;2023-06-10T10:50:18;97276.22;;;27.16;81.64
24962;BME280;12992;50.884;13.668;2023-06-10T10:53:00;97314.47;;;28.05;77.92
24962;BME280;12992;50.884;13.668;2023-06-10T10:55:27;97343.72;;;29.45;72.81
24962;BME280;12992;50.884;13.668;2023-06-10T10:58:00;97308.19;;;29.52;66.79
24962;BME280;12992;50.884;13.668;2023-06-10T11:00:32;97345.13;;;30.59;76.35
24962;BME280;12992;50.884;13.668;2023-06-10T11:03:07;97302.06;;;30.92;58.58
24962;BME280;12992;50.884;13.668;2023-06-10T11:05:45;97270.06;;;30.59;56.78
24962;BME280;12992;50.884;13.668;2023-06-10T11:08:15;97283.16;;;30.89;59.19
24962;BME280;12992;50.884;13.668;2023-06-10T11:10:51;97287.97;;;30.85;61.57
24962;BME280;12992;50.884;13.668;2023-06-10T11:13:19;97281.47;;;30.77;61.06
24962;BME280;12992;50.884;13.668;2023-06-10T11:15:46;97263.53;;;30.48;62.95
24962;BME280;12992;50.884;13.668;2023-06-10T11:18:28;97279.41;;;31.25;60.64
24962;BME280;12992;50.884;13.668;2023-06-10T11:20:58;97216.19;;;30.50;56.43
24962;BME280;12992;50.884;13.668;2023-06-10T11:28:34;97233.28;;;29.30;62.76
24962;BME280;12992;50.884;13.668;2023-06-10T11:30:59;97224.94;;;29.64;60.54
24962;BME280;12992;50.884;13.668;2023-06-10T11:33:25;97210.06;;;30.00;56.59
24962;BME280;12992;50.884;13.668;2023-06-10T11:35:50;97258.03;;;30.62;62.74
24962;BME280;12992;50.884;13.668;2023-06-10T11:38:16;97201.38;;;29.08;63.85
24962;BME280;12992;50.884;13.668;2023-06-10T11:40:50;97232.13;;;29.98;62.17
24962;BME280;12992;50.884;13.668;2023-06-10T11:43:17;97292.38;;;30.86;87.21
24962;BME280;12992;50.884;13.668;2023-06-10T11:45:43;97218.19;;;31.01;55.41
24962;BME280;12992;50.884;13.668;2023-06-10T11:48:09;97228.75;;;31.25;56.53
24962;BME280;12992;50.884;13.668;2023-06-10T11:50:36;97209.41;;;31.17;54.80
24962;BME280;12992;50.884;13.668;2023-06-10T11:53:02;97180.97;;;30.15;56.17
24962;BME280;12992;50.884;13.668;2023-06-10T11:55:44;97209.16;;;30.26;61.00
24962;BME280;12992;50.884;13.668;2023-06-10T11:58:16;97182.78;;;30.01;56.93
24962;BME280;12992;50.884;13.668;2023-06-10T12:00:50;97157.03;;;29.92;56.56
24962;BME280;12992;50.884;13.668;2023-06-10T12:03:16;97179.94;;;30.38;55.87
24962;BME280;12992;50.884;13.668;2023-06-10T12:08:26;97156.97;;;29.47;59.10
24962;BME280;12992;50.884;13.668;2023-06-10T12:10:52;97183.25;;;29.66;61.92
24962;BME280;12992;50.884;13.668;2023-06-10T12:13:18;97138.34;;;29.32;56.29
24962;BME280;12992;50.884;13.668;2023-06-10T12:15:44;97143.38;;;29.16;56.49
24962;BME280;12992;50.884;13.668;2023-06-10T12:18:19;97152.03;;;29.03;58.11
24962;BME280;12992;50.884;13.668;2023-06-10T12:20:45;97159.16;;;29.31;58.74
24962;BME280;12992;50.884;13.668;2023-06-10T12:23:11;97108.16;;;28.09;57.16
24962;BME280;12992;50.884;13.668;2023-06-10T12:25:37;97177.59;;;28.72;70.15
24962;BME280;12992;50.884;13.668;2023-06-10T12:28:03;97146.47;;;29.07;59.52
24962;BME280;12992;50.884;13.668;2023-06-10T12:30:29;97199.97;;;29.92;70.40
24962;BME280;12992;50.884;13.668;2023-06-10T12:32:55;97138.19;;;29.92;58.33
24962;BME280;12992;50.884;13.668;2023-06-10T12:35:27;97086.81;;;28.23;62.55
24962;BME280;12992;50.884;13.668;2023-06-10T12:40:31;97098.50;;;28.03;61.63
24962;BME280;12992;50.884;13.668;2023-06-10T12:42:57;97109.28;;;28.27;57.99
24962;BME280;12992;50.884;13.668;2023-06-10T12:45:30;97125.53;;;28.71;60.29
24962;BME280;12992;50.884;13.668;2023-06-10T12:48:09;97109.72;;;28.56;56.99
24962;BME280;12992;50.884;13.668;2023-06-10T12:50:40;97091.72;;;28.04;57.60
24962;BME280;12992;50.884;13.668;2023-06-10T12:53:06;97100.22;;;28.11;58.67
24962;BME280;12992;50.884;13.668;2023-06-10T12:55:32;97119.28;;;28.81;58.04
24962;BME280;12992;50.884;13.668;2023-06-10T12:57:58;97127.47;;;29.27;60.21